createdAt,value
2019-02-12T00:01:02.822Z,94145.28
2019-02-12T00:03:35.072Z,94172.69
2019-02-12T00:06:07.179Z,94182.30
2019-02-12T00:08:38.983Z,94174.66
2019-02-12T00:11:10.852Z,94184.78
2019-02-12T00:13:42.689Z,94170.64
2019-02-12T00:16:14.555Z,94159.48
2019-02-12T00:18:46.604Z,94182.53
2019-02-12T00:21:18.496Z,94229.36
2019-02-12T00:23:50.627Z,94234.55
2019-02-12T00:26:22.495Z,94240.08
2019-02-12T00:28:54.552Z,94213.48
2019-02-12T00:31:26.530Z,94210.70
2019-02-12T00:33:58.545Z,94212.55
2019-02-12T00:36:30.958Z,94212.91
2019-02-12T00:39:02.939Z,94202.89
2019-02-12T00:41:36.476Z,94192.13
2019-02-12T00:44:08.277Z,94198.43
2019-02-12T00:46:40.208Z,94215.44
2019-02-12T00:49:11.932Z,94203.05
2019-02-12T00:51:45.009Z,94201.28
2019-02-12T00:54:16.982Z,94193.59
2019-02-12T00:56:49.094Z,94194.05
2019-02-12T00:59:21.105Z,94198.48
2019-02-12T01:01:53.765Z,94213.56
2019-02-12T01:04:25.846Z,94210.66
2019-02-12T01:06:57.685Z,94207.19
2019-02-12T01:09:29.494Z,94196.86
2019-02-12T01:12:01.680Z,94205.94
2019-02-12T01:14:33.858Z,94208.23
2019-02-12T01:17:05.797Z,94214.33
2019-02-12T01:19:38.819Z,94215.23
2019-02-12T01:22:11.082Z,94215.03
2019-02-12T01:24:43.249Z,94205.78
2019-02-12T01:27:14.977Z,94198.44
2019-02-12T01:29:46.909Z,94200.19
2019-02-12T01:32:19.255Z,94192.34
2019-02-12T01:34:51.297Z,94196.71
2019-02-12T01:37:23.517Z,94202.64
2019-02-12T01:39:55.673Z,94196.20
2019-02-12T01:42:27.730Z,94181.92
2019-02-12T01:44:59.629Z,94184.64
2019-02-12T01:47:32.068Z,94173.68
2019-02-12T01:50:04.207Z,94184.03
2019-02-12T01:52:36.385Z,94187.56
2019-02-12T01:55:08.694Z,94186.65
2019-02-12T01:57:40.773Z,94186.16
2019-02-12T02:00:15.378Z,94174.98
2019-02-12T02:02:48.158Z,94165.23
2019-02-12T02:05:20.120Z,94163.56
2019-02-12T02:07:52.426Z,94164.70
2019-02-12T02:10:27.516Z,94164.07
2019-02-12T02:12:59.446Z,94166.69
2019-02-12T02:15:32.516Z,94177.28
2019-02-12T02:18:04.415Z,94183.38
2019-02-12T02:31:31.339Z,94185.30
2019-02-12T02:34:03.849Z,94201.88
2019-02-12T02:36:35.802Z,94197.88
2019-02-12T02:39:09.652Z,94190.47
2019-02-12T02:41:43.736Z,94190.18
2019-02-12T02:44:17.699Z,94187.11
2019-02-12T02:46:51.678Z,94199.33
2019-02-12T02:49:25.253Z,94202.34
2019-02-12T02:51:58.891Z,94197.66
2019-02-12T02:54:32.457Z,94196.61
2019-02-12T02:57:06.073Z,94200.93
2019-02-12T02:59:52.490Z,94211.39
2019-02-12T03:02:38.647Z,94206.88
2019-02-12T03:05:21.169Z,94207.47
2019-02-12T03:07:54.840Z,94210.63
2019-02-12T03:10:29.042Z,94219.70
2019-02-12T03:13:03.938Z,94217.77
2019-02-12T03:15:37.979Z,94217.37
2019-02-12T03:18:12.052Z,94222.09
2019-02-12T03:20:46.055Z,94217.56
2019-02-12T03:23:20.061Z,94215.45
2019-02-12T03:25:53.945Z,94217.87
2019-02-12T03:28:27.891Z,94220.58
2019-02-12T03:31:01.596Z,94218.77
2019-02-12T03:33:35.348Z,94224.47
2019-02-12T03:36:09.533Z,94229.94
2019-02-12T03:38:43.654Z,94221.59
2019-02-12T03:41:17.195Z,94230.27
2019-02-12T03:43:50.878Z,94230.56
2019-02-12T03:46:25.560Z,94234.11
2019-02-12T03:48:58.908Z,94238.34
2019-02-12T03:51:33.249Z,94241.05
2019-02-12T03:54:07.827Z,94241.32
2019-02-12T03:56:43.037Z,94241.45
2019-02-12T03:59:29.944Z,94248.80
2019-02-12T04:02:15.305Z,94236.44
2019-02-12T04:05:01.235Z,94247.30
2019-02-12T04:07:35.993Z,94243.08
2019-02-12T04:10:10.986Z,94253.83
2019-02-12T04:12:45.363Z,94257.13
2019-02-12T04:15:19.924Z,94265.76
2019-02-12T04:17:54.950Z,94256.08
2019-02-12T04:20:30.083Z,94266.46
2019-02-12T04:23:04.906Z,94263.47
2019-02-12T04:25:40.161Z,94265.44
2019-02-12T04:28:16.348Z,94269.66
2019-02-12T04:30:52.937Z,94275.39
2019-02-12T04:33:27.449Z,94272.58
2019-02-12T04:36:01.763Z,94276.30
2019-02-12T04:38:37.140Z,94274.99
2019-02-12T04:41:11.774Z,94279.81
2019-02-12T04:43:48.151Z,94285.85
2019-02-12T04:46:24.190Z,94279.11
2019-02-12T04:48:59.251Z,94277.30
2019-02-12T04:51:34.553Z,94283.81
2019-02-12T04:54:08.880Z,94289.84
2019-02-12T04:56:43.034Z,94280.52
2019-02-12T04:59:17.456Z,94288.84
2019-02-12T05:01:52.469Z,94292.66
2019-02-12T05:04:39.253Z,94299.61
2019-02-12T05:07:25.704Z,94303.70
2019-02-12T05:10:01.617Z,94306.32
2019-02-12T05:12:35.804Z,94317.41
2019-02-12T05:15:10.661Z,94323.37
2019-02-12T05:17:44.253Z,94323.67
2019-02-12T05:20:18.202Z,94319.44
2019-02-12T05:22:52.315Z,94314.81
2019-02-12T05:25:26.508Z,94315.14
2019-02-12T05:28:00.383Z,94313.92
2019-02-12T05:30:35.097Z,94324.37
2019-02-12T05:33:10.505Z,94328.11
2019-02-12T05:35:45.368Z,94327.09
2019-02-12T05:38:20.381Z,94336.64
2019-02-12T05:40:55.163Z,94344.17
2019-02-12T05:43:28.972Z,94347.81
2019-02-12T05:46:03.243Z,94358.34
2019-02-12T05:48:37.327Z,94358.16
2019-02-12T05:51:11.806Z,94356.55
2019-02-12T05:53:48.415Z,94361.89
2019-02-12T05:56:24.230Z,94371.33
2019-02-12T05:58:58.185Z,94376.86
2019-02-12T06:01:32.606Z,94378.26
2019-02-12T06:04:15.759Z,94376.58
2019-02-12T06:06:50.108Z,94383.50
2019-02-12T06:09:28.883Z,94381.28
2019-02-12T06:12:03.178Z,94384.45
2019-02-12T06:14:37.355Z,94385.84
2019-02-12T06:17:21.103Z,94390.97
2019-02-12T06:19:55.770Z,94392.56
2019-02-12T06:22:30.737Z,94402.83
2019-02-12T06:25:08.023Z,94404.03
2019-02-12T06:27:42.920Z,94407.93
2019-02-12T06:30:17.814Z,94415.03
2019-02-12T06:32:51.835Z,94416.55
2019-02-12T06:35:25.953Z,94416.74
2019-02-12T06:38:00.082Z,94419.47
2019-02-12T06:40:33.894Z,94415.14
2019-02-12T06:43:09.187Z,94426.80
2019-02-12T06:45:42.699Z,94430.31
2019-02-12T06:48:16.980Z,94434.45
2019-02-12T06:50:52.034Z,94427.01
2019-02-12T06:53:25.714Z,94433.86
2019-02-12T06:56:01.047Z,94440.30
2019-02-12T06:58:35.678Z,94446.35
2019-02-12T07:01:10.340Z,94445.24
2019-02-12T07:03:59.186Z,94456.72
2019-02-12T07:07:18.789Z,94455.01
2019-02-12T07:10:02.493Z,94460.34
2019-02-12T07:13:10.915Z,94465.16
2019-02-12T07:15:55.470Z,94466.07
2019-02-12T07:18:49.576Z,94474.63
2019-02-12T07:22:05.701Z,94471.09
2019-02-12T07:25:36.549Z,94471.02
2019-02-12T07:28:42.660Z,94469.20
2019-02-12T07:32:12.287Z,94476.66
2019-02-12T07:35:18.018Z,94480.36
2019-02-12T07:38:32.150Z,94480.96
2019-02-12T07:41:20.674Z,94483.19
2019-02-12T07:44:19.158Z,94485.00
2019-02-12T07:47:19.380Z,94479.25
2019-02-12T07:50:37.044Z,94490.11
2019-02-12T07:53:39.755Z,94493.05
2019-02-12T07:56:47.702Z,94493.95
2019-02-12T07:59:44.434Z,94496.67
2019-02-12T08:02:41.277Z,94499.98
2019-02-12T08:05:57.698Z,94509.02
2019-02-12T08:08:43.927Z,94508.34
2019-02-12T08:12:17.695Z,94518.39
2019-02-12T08:15:11.231Z,94519.33
2019-02-12T08:18:02.607Z,94528.59
2019-02-12T08:21:22.831Z,94527.05
2019-02-12T08:24:36.783Z,94534.23
2019-02-12T08:27:47.964Z,94523.98
2019-02-12T08:30:51.644Z,94524.33
2019-02-12T08:33:58.666Z,94522.70
2019-02-12T08:36:52.142Z,94533.59
2019-02-12T08:40:04.126Z,94545.26
2019-02-12T08:43:06.056Z,94550.50
2019-02-12T08:46:20.875Z,94555.23
2019-02-12T08:49:36.159Z,94554.80
2019-02-12T08:52:54.751Z,94566.46
2019-02-12T08:56:01.943Z,94561.52
2019-02-12T08:59:00.833Z,94563.16
2019-02-12T09:02:14.236Z,94564.77
2019-02-12T09:05:12.563Z,94573.05
2019-02-12T09:08:28.294Z,94570.73
2019-02-12T09:11:33.721Z,94577.00
2019-02-12T09:14:26.237Z,94579.76
2019-02-12T09:17:52.091Z,94593.38
2019-02-12T09:20:57.220Z,94593.30
2019-02-12T09:24:00.786Z,94600.62
2019-02-12T09:26:57.385Z,94597.52
2019-02-12T09:30:01.390Z,94581.31
2019-02-12T09:32:58.934Z,94582.94
2019-02-12T09:36:09.152Z,94584.59
2019-02-12T09:39:22.699Z,94593.52
2019-02-12T09:42:15.798Z,94594.41
2019-02-12T09:45:09.317Z,94587.81
2019-02-12T09:48:01.605Z,94594.97
2019-02-12T09:51:02.971Z,94601.73
2019-02-12T09:54:20.497Z,94590.27
2019-02-12T09:57:56.764Z,94604.95
2019-02-12T10:00:55.933Z,94606.32
2019-02-12T10:04:24.625Z,94623.53
2019-02-12T10:07:22.557Z,94633.84
2019-02-12T10:10:34.343Z,94616.25
2019-02-12T10:13:33.189Z,94629.16
2019-02-12T10:16:59.750Z,94622.39
2019-02-12T10:20:06.755Z,94624.49
2019-02-12T10:23:27.834Z,94616.62
2019-02-12T10:26:08.632Z,94617.54
2019-02-12T10:29:17.275Z,94612.02
2019-02-12T10:32:10.167Z,94621.89
2019-02-12T10:34:44.668Z,94637.42
2019-02-12T10:37:18.810Z,94628.16
2019-02-12T10:39:52.896Z,94630.88
2019-02-12T10:42:27.964Z,94632.41
2019-02-12T10:45:01.804Z,94633.30
2019-02-12T10:47:36.124Z,94633.60
2019-02-12T10:50:10.290Z,94637.25
2019-02-12T10:52:45.510Z,94649.72
2019-02-12T10:55:30.203Z,94651.94
2019-02-12T10:58:11.954Z,94654.58
2019-02-12T11:00:46.969Z,94663.81
2019-02-12T11:03:23.107Z,94667.43
2019-02-12T11:06:00.173Z,94661.59
2019-02-12T11:08:38.260Z,94668.45
2019-02-12T11:11:21.004Z,94668.83
2019-02-12T11:13:56.384Z,94658.06
2019-02-12T11:16:32.632Z,94674.30
2019-02-12T11:19:04.888Z,94677.83
2019-02-12T11:21:37.048Z,94673.59
2019-02-12T11:24:12.796Z,94672.41
2019-02-12T11:26:47.214Z,94688.94
2019-02-12T11:29:19.385Z,94672.71
2019-02-12T11:32:03.935Z,94685.80
2019-02-12T11:34:35.902Z,94688.13
2019-02-12T11:37:07.867Z,94696.77
2019-02-12T11:39:39.856Z,94695.76
2019-02-12T11:42:11.695Z,94704.05
2019-02-12T11:44:43.568Z,94696.77
2019-02-12T11:47:15.495Z,94694.24
2019-02-12T11:49:49.133Z,94711.37
2019-02-12T11:52:23.024Z,94701.72
2019-02-12T11:55:09.820Z,94708.89
2019-02-12T11:57:55.855Z,94693.65
2019-02-12T12:00:41.295Z,94709.57
2019-02-12T12:03:15.611Z,94722.95
2019-02-12T12:05:49.988Z,94708.26
2019-02-12T12:08:24.386Z,94702.22
2019-02-12T12:10:58.738Z,94707.77
2019-02-12T12:13:31.017Z,94712.99
2019-02-12T12:16:04.485Z,94714.31
2019-02-12T12:18:38.438Z,94724.87
2019-02-12T12:21:12.260Z,94720.35
2019-02-12T12:23:49.041Z,94713.70
2019-02-12T12:26:21.636Z,94732.85
2019-02-12T12:28:58.088Z,94731.97
2019-02-12T12:31:34.084Z,94734.78
2019-02-12T12:34:08.650Z,94730.73
2019-02-12T12:36:43.266Z,94736.16
2019-02-12T12:39:18.174Z,94737.46
2019-02-12T12:41:53.772Z,94744.42
2019-02-12T12:44:28.891Z,94740.89
2019-02-12T12:47:04.982Z,94754.95
2019-02-12T12:49:39.781Z,94763.38
2019-02-12T12:52:13.996Z,94770.66
2019-02-12T12:54:48.035Z,94781.63
2019-02-12T12:57:21.459Z,94781.41
2019-02-12T12:59:56.330Z,94782.75
2019-02-12T13:02:31.768Z,94791.81
2019-02-12T13:05:06.210Z,94791.48
2019-02-12T13:07:40.201Z,94799.66
2019-02-12T13:10:26.687Z,94788.79
2019-02-12T13:13:12.774Z,94793.61
2019-02-12T13:15:58.706Z,94801.31
2019-02-12T13:18:40.877Z,94798.22
2019-02-12T13:21:25.294Z,94810.23
2019-02-12T13:23:59.679Z,94817.54
2019-02-12T13:26:37.054Z,94820.07
2019-02-12T13:29:12.434Z,94831.84
2019-02-12T13:31:46.679Z,94830.44
2019-02-12T13:34:21.173Z,94843.11
2019-02-12T13:36:55.450Z,94838.72
2019-02-12T13:39:30.100Z,94845.02
2019-02-12T13:42:04.934Z,94861.24
2019-02-12T13:44:40.194Z,94855.52
2019-02-12T13:47:15.957Z,94858.47
2019-02-12T13:49:52.074Z,94856.40
2019-02-12T13:52:27.262Z,94864.52
2019-02-12T13:55:01.603Z,94867.08
2019-02-12T13:57:35.645Z,94868.02
2019-02-12T14:00:11.761Z,94864.78
2019-02-12T14:02:46.733Z,94862.59
2019-02-12T14:05:21.998Z,94868.90
2019-02-12T14:07:57.259Z,94867.76
2019-02-12T14:10:41.599Z,94878.71
2019-02-12T14:13:16.340Z,94882.88
2019-02-12T14:15:51.111Z,94896.84
2019-02-12T14:18:26.892Z,94902.84
2019-02-12T14:21:01.322Z,94905.62
2019-02-12T14:23:36.041Z,94917.95
2019-02-12T14:26:11.197Z,94913.35
2019-02-12T14:28:45.446Z,94921.42
2019-02-12T14:31:19.410Z,94922.85
2019-02-12T14:33:53.479Z,94926.69
2019-02-12T14:36:28.759Z,94927.48
2019-02-12T14:39:06.570Z,94930.06
2019-02-12T14:41:41.539Z,94928.19
2019-02-12T14:44:17.021Z,94926.06
2019-02-12T14:46:51.144Z,94936.22
2019-02-12T14:49:25.286Z,94937.66
2019-02-12T14:51:59.665Z,94944.89
2019-02-12T14:54:44.638Z,94944.58
2019-02-12T14:57:32.210Z,94947.27
2019-02-12T15:00:18.282Z,94946.38
2019-02-12T15:03:04.740Z,94955.20
2019-02-12T15:05:39.702Z,94953.86
2019-02-12T15:08:14.202Z,94959.33
2019-02-12T15:10:48.870Z,94963.92
2019-02-12T15:13:23.767Z,94980.06
2019-02-12T15:15:58.360Z,94965.06
2019-02-12T15:18:32.997Z,94974.84
2019-02-12T15:21:07.898Z,94980.03
2019-02-12T15:23:42.665Z,94982.98
2019-02-12T15:26:18.520Z,94987.58
2019-02-12T15:28:52.150Z,94989.91
2019-02-12T15:31:25.995Z,94995.94
2019-02-12T15:34:01.234Z,94989.55
2019-02-12T15:36:36.176Z,94999.78
2019-02-12T15:39:10.255Z,94986.77
2019-02-12T15:41:44.468Z,94999.28
2019-02-12T15:44:19.232Z,95003.38
2019-02-12T15:46:53.093Z,95001.57
2019-02-12T22:51:07.211Z,95446.00
2019-02-12T22:53:39.362Z,95453.50
2019-02-12T22:56:12.235Z,95460.69
2019-02-12T22:58:44.839Z,95459.05
2019-02-12T23:01:17.176Z,95465.23
2019-02-12T23:03:50.073Z,95474.64
2019-02-12T23:06:23.313Z,95477.72
2019-02-12T23:08:55.318Z,95475.25
2019-02-12T23:11:27.630Z,95480.93
2019-02-12T23:14:13.279Z,95482.88
2019-02-12T23:16:58.804Z,95494.59
2019-02-12T23:19:39.715Z,95497.33
2019-02-12T23:22:14.503Z,95502.15
2019-02-12T23:24:47.804Z,95489.63
2019-02-12T23:27:19.962Z,95494.67
2019-02-12T23:29:52.141Z,95492.02
2019-02-12T23:32:24.068Z,95497.25
2019-02-12T23:34:57.300Z,95507.00
2019-02-12T23:37:30.043Z,95502.61
2019-02-12T23:40:04.316Z,95499.16
2019-02-12T23:42:38.271Z,95500.97
2019-02-12T23:45:12.504Z,95509.14
2019-02-12T23:47:46.490Z,95513.66
2019-02-12T23:50:20.705Z,95505.63
2019-02-12T23:52:54.280Z,95510.35
2019-02-12T23:55:28.323Z,95507.93
2019-02-12T23:58:06.027Z,95508.41
